createdAt,value
2024-04-18T00:01:40.532Z,101529.38
2024-04-18T00:04:07.899Z,101527.56
2024-04-18T00:06:35.228Z,101531.13
2024-04-18T00:09:03.044Z,101531.31
2024-04-18T00:11:30.439Z,101531.34
2024-04-18T00:13:57.734Z,101533.03
2024-04-18T00:16:24.983Z,101535.75
2024-04-18T00:18:52.286Z,101536.56
2024-04-18T00:21:19.609Z,101534.03
2024-04-18T00:23:46.913Z,101531.25
2024-04-18T00:26:14.302Z,101531.28
2024-04-18T00:28:41.731Z,101526.84
2024-04-18T00:31:08.962Z,101531.34
2024-04-18T00:33:37.386Z,101536.63
2024-04-18T00:36:08.173Z,101540.28
2024-04-18T00:38:35.422Z,101540.22
2024-04-18T00:41:02.728Z,101540.31
2024-04-18T00:43:32.982Z,101543.84
2024-04-18T00:46:00.569Z,101543.97
2024-04-18T00:48:30.550Z,101540.38
2024-04-18T00:50:59.855Z,101545.75
2024-04-18T00:53:30.076Z,101544.81
2024-04-18T00:55:57.593Z,101540.47
2024-04-18T00:58:24.934Z,101536.88
2024-04-18T01:01:01.721Z,101540.44
2024-04-18T01:03:29.826Z,101546.69
2024-04-18T01:05:57.687Z,101545.91
2024-04-18T01:08:24.938Z,101556.53
2024-04-18T01:10:52.238Z,101558.47
2024-04-18T01:13:19.472Z,101546.88
2024-04-18T01:15:46.766Z,101547.72
2024-04-18T01:18:14.164Z,101548.69
2024-04-18T01:20:41.573Z,101552.16
2024-04-18T01:23:08.823Z,101551.28
2024-04-18T01:25:36.100Z,101556.63
2024-04-18T01:28:03.333Z,101560.44
2024-04-18T01:30:30.611Z,101560.41
2024-04-18T01:32:57.920Z,101565.75
2024-04-18T01:35:25.212Z,101563.00
2024-04-18T01:37:52.473Z,101562.22
2024-04-18T01:40:19.784Z,101563.09
2024-04-18T01:42:49.761Z,101565.00
2024-04-18T01:45:17.155Z,101566.72
2024-04-18T01:47:46.225Z,101574.59
2024-04-18T01:50:13.499Z,101560.47
2024-04-18T01:52:41.073Z,101562.22
2024-04-18T01:55:09.225Z,101559.56
2024-04-18T01:57:37.663Z,101574.72
2024-04-18T02:00:05.473Z,101571.31
2024-04-18T02:02:32.714Z,101574.72
2024-04-18T02:05:00.021Z,101573.09
2024-04-18T02:07:27.416Z,101576.72
2024-04-18T02:09:55.428Z,101587.34
2024-04-18T02:12:22.728Z,101587.47
2024-04-18T02:14:50.012Z,101582.09
2024-04-18T02:17:17.286Z,101584.72
2024-04-18T02:19:44.569Z,101595.53
2024-04-18T02:22:12.576Z,101588.34
2024-04-18T02:25:02.473Z,101595.56
2024-04-18T02:27:29.757Z,101598.31
2024-04-18T02:29:57.010Z,101602.69
2024-04-18T02:32:24.330Z,101602.69
2024-04-18T02:34:51.629Z,101605.47
2024-04-18T02:37:18.925Z,101599.25
2024-04-18T02:39:46.251Z,101598.34
2024-04-18T02:42:13.691Z,101601.03
2024-04-18T02:44:40.970Z,101598.28
2024-04-18T02:47:09.701Z,101607.22
2024-04-18T02:49:37.033Z,101604.59
2024-04-18T02:52:05.633Z,101606.47
2024-04-18T02:54:32.879Z,101601.88
2024-04-18T02:57:00.158Z,101600.22
2024-04-18T02:59:27.450Z,101600.22
2024-04-18T03:01:54.737Z,101609.19
2024-04-18T03:04:21.974Z,101616.41
2024-04-18T03:06:49.664Z,101620.75
2024-04-18T03:09:17.219Z,101606.53
2024-04-18T03:11:47.710Z,101611.16
2024-04-18T03:14:14.975Z,101621.03
2024-04-18T03:16:42.235Z,101615.50
2024-04-18T03:19:13.187Z,101620.00
2024-04-18T03:21:40.546Z,101622.72
2024-04-18T03:24:20.490Z,101622.59
2024-04-18T03:26:49.173Z,101615.50
2024-04-18T03:29:16.500Z,101626.38
2024-04-18T03:31:44.551Z,101632.56
2024-04-18T03:34:14.179Z,101630.81
2024-04-18T03:36:54.504Z,101635.28
2024-04-18T03:39:22.382Z,101638.00
2024-04-18T03:41:50.338Z,101639.78
2024-04-18T03:44:18.313Z,101638.06
2024-04-18T03:46:45.571Z,101643.41
2024-04-18T03:49:12.911Z,101639.91
2024-04-18T03:51:40.204Z,101640.72
2024-04-18T03:54:07.451Z,101636.22
2024-04-18T03:56:36.548Z,101645.22
2024-04-18T03:59:03.839Z,101641.66
2024-04-18T04:01:31.245Z,101650.53
2024-04-18T04:04:01.320Z,101651.47
2024-04-18T04:06:28.697Z,101655.00
2024-04-18T04:08:55.992Z,101654.19
2024-04-18T04:11:23.254Z,101649.72
2024-04-18T04:13:50.635Z,101655.97
2024-04-18T04:16:19.528Z,101654.22
2024-04-18T04:18:51.683Z,101663.16
2024-04-18T04:21:19.824Z,101661.34
2024-04-18T04:23:47.559Z,101667.47
2024-04-18T04:26:14.898Z,101667.66
2024-04-18T04:28:42.145Z,101674.81
2024-04-18T04:31:09.407Z,101671.25
2024-04-18T04:33:36.671Z,101675.69
2024-04-18T04:36:03.944Z,101677.50
2024-04-18T04:38:31.214Z,101688.22
2024-04-18T04:40:58.554Z,101679.25
2024-04-18T04:43:28.721Z,101693.56
2024-04-18T04:45:56.393Z,101696.28
2024-04-18T04:48:23.832Z,101685.56
2024-04-18T04:51:03.026Z,101687.34
2024-04-18T04:53:30.335Z,101697.16
2024-04-18T04:55:57.628Z,101694.47
2024-04-18T04:58:24.908Z,101706.97
2024-04-18T05:00:54.837Z,101706.09
2024-04-18T05:03:22.613Z,101701.63
2024-04-18T05:05:49.949Z,101701.66
2024-04-18T05:08:18.760Z,101711.47
2024-04-18T05:10:49.446Z,101711.47
2024-04-18T05:13:17.080Z,101708.72
2024-04-18T05:15:45.565Z,101713.28
2024-04-18T05:18:12.967Z,101707.03
2024-04-18T05:20:40.286Z,101712.38
2024-04-18T05:23:08.581Z,101718.59
2024-04-18T05:25:36.621Z,101717.72
2024-04-18T05:28:15.611Z,101720.41
2024-04-18T05:31:03.181Z,101726.69
2024-04-18T05:33:31.574Z,101729.38
2024-04-18T05:35:58.979Z,101727.56
2024-04-18T05:38:26.866Z,101726.69
2024-04-18T05:40:54.577Z,101734.72
2024-04-18T05:43:21.889Z,101733.84
2024-04-18T05:45:50.189Z,101733.84
2024-04-18T05:48:19.464Z,101731.16
2024-04-18T05:50:46.751Z,101732.06
2024-04-18T05:53:13.999Z,101724.03
2024-04-18T05:55:41.719Z,101727.63
2024-04-18T05:58:09.009Z,101727.59
2024-04-18T06:00:36.659Z,101739.19
2024-04-18T06:03:04.733Z,101743.66
2024-04-18T06:05:32.033Z,101734.75
2024-04-18T06:07:59.305Z,101745.47
2024-04-18T06:10:26.704Z,101749.03
2024-04-18T06:12:54.078Z,101759.75
2024-04-18T06:15:21.447Z,101757.97
2024-04-18T06:17:48.866Z,101760.66
2024-04-18T06:20:16.286Z,101757.06
2024-04-18T06:22:43.552Z,101757.97
2024-04-18T06:25:11.059Z,101765.13
2024-04-18T06:27:40.623Z,101761.56
2024-04-18T06:30:08.771Z,101769.56
2024-04-18T06:32:36.122Z,101771.22
2024-04-18T06:35:03.489Z,101780.00
2024-04-18T06:37:33.392Z,101782.63
2024-04-18T06:40:01.927Z,101785.25
2024-04-18T06:42:29.555Z,101784.44
2024-04-18T06:44:56.888Z,101789.94
2024-04-18T06:47:24.220Z,101788.19
2024-04-18T06:49:51.475Z,101781.03
2024-04-18T06:52:23.635Z,101779.34
2024-04-18T06:54:51.602Z,101788.28
2024-04-18T06:57:18.925Z,101788.28
2024-04-18T06:59:46.245Z,101793.69
2024-04-18T07:02:13.519Z,101788.31
2024-04-18T07:04:40.853Z,101794.53
2024-04-18T07:07:17.796Z,101799.03
2024-04-18T07:09:48.252Z,101801.69
2024-04-18T07:12:16.852Z,101800.81
2024-04-18T07:14:44.142Z,101800.81
2024-04-18T07:17:11.512Z,101799.91
2024-04-18T07:19:38.870Z,101803.47
2024-04-18T07:22:06.228Z,101807.97
2024-04-18T07:24:33.595Z,101806.19
2024-04-18T07:27:00.968Z,101804.38
2024-04-18T07:29:28.223Z,101813.34
2024-04-18T07:31:55.597Z,101804.41
2024-04-18T07:34:24.574Z,101812.41
2024-04-18T07:36:51.943Z,101831.19
2024-04-18T07:39:20.182Z,101834.78
2024-04-18T07:41:49.488Z,101832.97
2024-04-18T07:44:17.704Z,101823.16
2024-04-18T07:46:46.015Z,101829.41
2024-04-18T07:49:17.666Z,101831.19
2024-04-18T07:51:46.010Z,101832.09
2024-04-18T07:54:13.616Z,101829.41
2024-04-18T07:56:41.564Z,101831.19
2024-04-18T07:59:10.610Z,101824.91
2024-04-18T08:01:39.958Z,101836.53
2024-04-18T08:04:27.502Z,101837.41
2024-04-18T08:06:58.459Z,101830.28
2024-04-18T08:09:32.210Z,101833.84
2024-04-18T08:12:22.476Z,101834.75
2024-04-18T08:14:51.261Z,101843.66
2024-04-18T08:17:21.260Z,101843.66
2024-04-18T08:19:51.309Z,101850.81
2024-04-18T08:22:19.846Z,101850.78
2024-04-18T08:24:47.101Z,101850.78
2024-04-18T08:27:17.221Z,101856.09
2024-04-18T08:29:45.606Z,101859.66
2024-04-18T08:32:12.976Z,101857.00
2024-04-18T08:34:43.786Z,101848.94
2024-04-18T08:37:13.659Z,101856.94
2024-04-18T08:39:41.083Z,101863.19
2024-04-18T08:42:12.262Z,101856.06
2024-04-18T08:44:42.408Z,101860.50
2024-04-18T08:47:10.563Z,101857.81
2024-04-18T08:49:39.612Z,101863.16
2024-04-18T08:52:08.206Z,101864.03
2024-04-18T08:54:35.665Z,101863.16
2024-04-18T08:57:06.409Z,101864.91
2024-04-18T08:59:34.161Z,101861.28
2024-04-18T09:02:02.362Z,101861.31
2024-04-18T09:04:31.186Z,101872.94
2024-04-18T09:06:58.520Z,101859.56
2024-04-18T09:09:25.867Z,101873.91
2024-04-18T09:11:54.896Z,101870.34
2024-04-18T09:14:22.615Z,101872.16
2024-04-18T09:16:49.949Z,101863.19
2024-04-18T09:19:17.225Z,101868.59
2024-04-18T09:21:44.578Z,101879.38
2024-04-18T09:24:11.934Z,101881.16
2024-04-18T09:26:39.210Z,101882.03
2024-04-18T09:29:06.495Z,101882.94
2024-04-18T09:31:38.573Z,101875.78
2024-04-18T09:34:15.356Z,101890.06
2024-04-18T09:36:45.453Z,101882.03
2024-04-18T09:39:18.602Z,101886.50
2024-04-18T09:41:51.749Z,101892.75
2024-04-18T09:44:26.030Z,101888.25
2024-04-18T09:46:55.467Z,101891.84
2024-04-18T09:49:23.830Z,101886.47
2024-04-18T09:51:51.639Z,101890.09
2024-04-18T09:54:19.478Z,101888.28
2024-04-18T09:56:48.022Z,101891.84
2024-04-18T09:59:17.426Z,101892.75
2024-04-18T10:01:44.817Z,101895.41
2024-04-18T10:04:12.301Z,101897.22
2024-04-18T10:06:41.681Z,101896.28
2024-04-18T10:09:10.140Z,101903.47
2024-04-18T10:11:38.381Z,101895.41
2024-04-18T10:14:08.463Z,101900.81
2024-04-18T10:16:49.987Z,101902.56
2024-04-18T10:19:24.057Z,101895.38
2024-04-18T10:22:10.847Z,101884.69
2024-04-18T10:24:43.794Z,101891.81
2024-04-18T10:27:17.000Z,101887.38
2024-04-18T10:29:59.205Z,101897.22
2024-04-18T10:32:30.492Z,101898.97
2024-04-18T10:35:00.334Z,101891.81
2024-04-18T10:37:27.666Z,101888.22
2024-04-18T10:39:58.070Z,101889.09
2024-04-18T10:42:26.369Z,101887.31
2024-04-18T10:44:53.850Z,101886.41
2024-04-18T10:47:22.342Z,101882.81
2024-04-18T10:49:50.133Z,101888.22
2024-04-18T10:52:18.457Z,101886.44
2024-04-18T10:54:47.561Z,101877.50
2024-04-18T10:57:21.179Z,101877.50
2024-04-18T10:59:49.215Z,101873.88
2024-04-18T11:02:16.701Z,101889.94
2024-04-18T11:04:44.077Z,101879.19
2024-04-18T11:07:12.414Z,101891.72
2024-04-18T11:09:42.200Z,101895.28
2024-04-18T11:12:10.059Z,101889.88
2024-04-18T11:14:37.695Z,101885.44
2024-04-18T11:17:05.091Z,101889.00
2024-04-18T11:19:32.503Z,101894.34
2024-04-18T11:22:03.645Z,101889.84
2024-04-18T11:24:31.078Z,101888.06
2024-04-18T11:26:58.696Z,101888.06
2024-04-18T11:29:28.660Z,101888.06
2024-04-18T11:32:07.515Z,101877.31
2024-04-18T11:34:34.822Z,101880.91
2024-04-18T11:37:04.758Z,101891.66
2024-04-18T11:39:32.886Z,101886.22
2024-04-18T11:42:01.755Z,101891.56
2024-04-18T11:44:30.649Z,101887.94
2024-04-18T11:46:58.076Z,101893.34
2024-04-18T11:49:25.760Z,101894.28
2024-04-18T11:51:55.710Z,101896.06
2024-04-18T11:54:23.007Z,101894.28
2024-04-18T11:56:50.315Z,101894.28
2024-04-18T11:59:18.161Z,101895.22
2024-04-18T12:01:48.053Z,101888.03
2024-04-18T12:04:15.467Z,101886.22
2024-04-18T12:06:42.880Z,101896.09
2024-04-18T12:09:10.206Z,101901.41
2024-04-18T12:11:38.820Z,101897.78
2024-04-18T12:14:06.856Z,101904.13
2024-04-18T12:16:34.685Z,101896.94
2024-04-18T12:19:01.962Z,101902.28
2024-04-18T12:21:32.142Z,101901.41
2024-04-18T12:23:59.498Z,101902.25
2024-04-18T12:26:26.817Z,101893.34
2024-04-18T12:28:54.206Z,101896.94
2024-04-18T12:31:21.460Z,101891.56
2024-04-18T12:33:48.777Z,101902.25
2024-04-18T12:36:17.389Z,101891.53
2024-04-18T12:38:46.180Z,101895.06
2024-04-18T12:41:13.644Z,101895.97
2024-04-18T12:43:41.776Z,101895.88
2024-04-18T12:46:15.271Z,101896.81
2024-04-18T12:48:49.620Z,101892.38
2024-04-18T12:51:17.077Z,101895.88
2024-04-18T12:53:44.524Z,101886.91
2024-04-18T12:56:11.770Z,101875.19
2024-04-18T12:58:41.854Z,101884.13
2024-04-18T13:01:12.644Z,101882.31
2024-04-18T13:03:46.232Z,101882.31
2024-04-18T13:06:13.732Z,101893.03
2024-04-18T13:08:41.267Z,101891.25
2024-04-18T13:11:08.562Z,101873.31
2024-04-18T13:13:40.035Z,101872.50
2024-04-18T13:16:07.513Z,101871.56
2024-04-18T13:18:35.804Z,101875.19
2024-04-18T13:21:03.144Z,101870.72
2024-04-18T13:23:30.469Z,101873.38
2024-04-18T13:25:57.812Z,101872.47
2024-04-18T13:28:25.099Z,101871.56
2024-04-18T13:30:52.356Z,101867.13
2024-04-18T13:33:21.717Z,101875.19
2024-04-18T13:35:49.162Z,101870.69
2024-04-18T13:38:16.400Z,101875.19
2024-04-18T13:40:43.701Z,101882.31
2024-04-18T13:43:12.491Z,101884.13
2024-04-18T13:45:39.877Z,101879.66
2024-04-18T13:48:13.066Z,101877.00
2024-04-18T13:50:40.776Z,101883.31
2024-04-18T13:53:08.060Z,101886.81
2024-04-18T13:55:35.348Z,101891.34
2024-04-18T13:58:02.629Z,101884.16
2024-04-18T14:00:30.852Z,101880.56
2024-04-18T14:03:00.833Z,101886.78
2024-04-18T14:05:28.126Z,101886.84
2024-04-18T14:07:55.394Z,101885.97
2024-04-18T14:10:22.671Z,101887.75
2024-04-18T14:12:49.950Z,101891.34
2024-04-18T14:15:37.023Z,101886.81
2024-04-18T14:18:26.089Z,101888.66
2024-04-18T14:20:54.457Z,101883.22
2024-04-18T14:23:21.684Z,101877.88
2024-04-18T14:25:49.264Z,101877.91
2024-04-18T14:28:24.036Z,101877.00
2024-04-18T14:31:01.878Z,101870.69
2024-04-18T14:33:38.351Z,101876.16
2024-04-18T14:36:08.645Z,101864.50
2024-04-18T14:38:36.014Z,101869.00
2024-04-18T14:41:09.900Z,101866.31
2024-04-18T14:43:39.542Z,101856.44
2024-04-18T14:46:06.940Z,101856.47
2024-04-18T14:48:35.733Z,101848.38
2024-04-18T14:51:03.079Z,101846.66
2024-04-18T14:53:30.424Z,101853.81
2024-04-18T14:55:57.727Z,101855.59
2024-04-18T14:58:25.033Z,101859.16
2024-04-18T15:00:56.550Z,101850.22
2024-04-18T15:03:23.990Z,101845.78
2024-04-18T15:05:57.533Z,101847.56
2024-04-18T15:08:25.274Z,101839.53
2024-04-18T15:10:53.314Z,101834.16
2024-04-18T15:13:20.622Z,101826.09
2024-04-18T15:15:48.014Z,101838.63
2024-04-18T15:18:15.523Z,101833.28
2024-04-18T15:20:42.848Z,101828.78
2024-04-18T15:23:11.311Z,101826.97
2024-04-18T15:25:38.674Z,101830.63
2024-04-18T15:28:06.695Z,101823.41
2024-04-18T15:30:34.154Z,101828.78
2024-04-18T15:33:01.507Z,101820.69
2024-04-18T15:35:28.806Z,101824.28
2024-04-18T15:37:56.083Z,101819.84
2024-04-18T15:40:23.374Z,101814.53
2024-04-18T15:42:50.693Z,101813.53
2024-04-18T15:45:17.962Z,101809.03
2024-04-18T15:47:45.285Z,101803.72
2024-04-18T15:50:12.624Z,101801.06
2024-04-18T15:52:39.978Z,101800.19
2024-04-18T15:55:15.449Z,101793.03
2024-04-18T15:57:47.248Z,101791.22
2024-04-18T16:00:14.681Z,101788.59
2024-04-18T16:02:42.103Z,101793.03
2024-04-18T16:05:09.395Z,101785.84
2024-04-18T16:07:36.641Z,101796.66
2024-04-18T16:10:04.776Z,101795.78
2024-04-18T16:12:33.353Z,101788.63
2024-04-18T16:15:02.268Z,101786.03
2024-04-18T16:17:29.648Z,101788.72
2024-04-18T16:19:56.974Z,101782.50
2024-04-18T16:22:24.851Z,101785.16
2024-04-18T16:24:53.216Z,101790.50
2024-04-18T16:27:20.588Z,101788.69
2024-04-18T16:29:47.872Z,101785.25
2024-04-18T16:32:15.133Z,101786.13
2024-04-18T16:34:42.450Z,101782.53
2024-04-18T16:37:13.288Z,101789.75
2024-04-18T16:39:44.189Z,101774.50
2024-04-18T16:42:12.560Z,101775.44
2024-04-18T16:44:39.840Z,101779.03
2024-04-18T16:47:07.067Z,101775.44
2024-04-18T16:49:34.344Z,101765.63
2024-04-18T16:52:01.602Z,101764.69
2024-04-18T16:54:30.486Z,101764.69
2024-04-18T16:56:57.856Z,101765.59
2024-04-18T16:59:25.176Z,101753.13
2024-04-18T17:01:52.414Z,101741.56
2024-04-18T17:04:19.848Z,101739.69
2024-04-18T17:06:49.034Z,101739.75
2024-04-18T17:09:20.210Z,101728.09
2024-04-18T17:11:47.772Z,101729.94
2024-04-18T17:14:15.604Z,101727.25
2024-04-18T17:16:42.949Z,101729.00
2024-04-18T17:19:13.615Z,101723.63
2024-04-18T17:21:42.868Z,101718.28
2024-04-18T17:24:10.215Z,101721.84
2024-04-18T17:26:37.884Z,101718.28
2024-04-18T17:29:05.177Z,101705.75
2024-04-18T17:31:34.167Z,101712.94
2024-04-18T17:34:01.491Z,101709.38
2024-04-18T17:36:28.784Z,101702.22
2024-04-18T17:38:56.282Z,101709.41
2024-04-18T17:41:24.033Z,101692.38
2024-04-18T17:43:51.308Z,101704.03
2024-04-18T17:46:18.551Z,101687.94
2024-04-18T17:48:46.173Z,101688.78
2024-04-18T17:51:15.070Z,101691.53
2024-04-18T17:53:42.360Z,101687.00
2024-04-18T17:56:09.595Z,101677.19
2024-04-18T17:58:36.863Z,101687.06
2024-04-18T18:01:04.188Z,101679.91
2024-04-18T18:03:31.671Z,101687.09
2024-04-18T18:06:00.727Z,101693.34
2024-04-18T18:08:28.167Z,101682.59
2024-04-18T18:10:55.516Z,101684.41
2024-04-18T18:13:23.635Z,101685.28
2024-04-18T18:15:50.996Z,101681.75
2024-04-18T18:18:18.381Z,101674.59
2024-04-18T18:20:45.778Z,101674.56
2024-04-18T18:23:16.226Z,101668.31
2024-04-18T18:25:44.015Z,101670.19
2024-04-18T18:28:11.266Z,101666.63
2024-04-18T18:30:40.177Z,101658.56
2024-04-18T18:33:07.782Z,101659.50
2024-04-18T18:35:35.092Z,101647.81
2024-04-18T18:38:02.355Z,101647.84
2024-04-18T18:40:32.013Z,101644.25
2024-04-18T18:43:01.769Z,101638.94
2024-04-18T18:45:29.164Z,101639.84
2024-04-18T18:47:56.678Z,101642.25
2024-04-18T18:50:24.047Z,101646.72
2024-04-18T18:52:51.419Z,101642.34
2024-04-18T18:55:18.708Z,101630.78
2024-04-18T18:57:48.629Z,101625.44
2024-04-18T19:00:18.075Z,101629.03
2024-04-18T19:02:46.913Z,101621.88
2024-04-18T19:05:17.007Z,101616.50
2024-04-18T19:07:44.258Z,101621.00
2024-04-18T19:10:11.941Z,101613.91
2024-04-18T19:12:39.227Z,101611.22
2024-04-18T19:15:06.708Z,101613.91
2024-04-18T19:17:37.924Z,101609.44
2024-04-18T19:20:05.559Z,101596.94
2024-04-18T19:22:32.825Z,101596.94
2024-04-18T19:25:01.258Z,101593.38
2024-04-18T19:27:28.516Z,101595.19
2024-04-18T19:29:57.376Z,101579.16
2024-04-18T19:32:26.228Z,101584.47
2024-04-18T19:34:53.507Z,101580.91
2024-04-18T19:37:20.762Z,101586.25
2024-04-18T19:39:48.963Z,101579.16
2024-04-18T19:42:17.893Z,101573.78
2024-04-18T19:44:45.300Z,101574.69
2024-04-18T19:47:12.982Z,101559.44
2024-04-18T19:49:40.230Z,101559.44
2024-04-18T19:52:08.711Z,101560.38
2024-04-18T19:54:36.333Z,101545.19
2024-04-18T19:57:04.369Z,101548.78
2024-04-18T19:59:32.496Z,101547.88
2024-04-18T20:01:59.827Z,101536.28
2024-04-18T20:04:27.141Z,101536.28
2024-04-18T20:06:54.712Z,101526.47
2024-04-18T20:09:23.910Z,101529.16
2024-04-18T20:11:51.212Z,101519.31
2024-04-18T20:14:18.483Z,101518.41
2024-04-18T20:16:46.048Z,101505.00
2024-04-18T20:19:14.504Z,101504.16
2024-04-18T20:21:45.057Z,101500.56
2024-04-18T20:24:13.693Z,101496.16
2024-04-18T20:26:41.037Z,101497.03
2024-04-18T20:29:10.995Z,101494.38
2024-04-18T20:31:38.314Z,101484.53
2024-04-18T20:34:07.098Z,101480.97
2024-04-18T20:36:34.413Z,101482.78
2024-04-18T20:39:01.705Z,101480.97
2024-04-18T20:41:33.236Z,101472.03
2024-04-18T20:44:00.533Z,101468.50
2024-04-18T20:46:31.284Z,101460.50
2024-04-18T20:48:58.897Z,101458.69
2024-04-18T20:51:26.243Z,101452.44
2024-04-18T20:53:53.498Z,101439.94
2024-04-18T20:56:20.754Z,101440.84
2024-04-18T20:58:47.997Z,101436.47
2024-04-18T21:01:15.417Z,101436.41
2024-04-18T21:03:42.931Z,101429.25
2024-04-18T21:06:10.279Z,101426.59
2024-04-18T21:08:38.282Z,101420.38
2024-04-18T21:11:05.580Z,101409.69
2024-04-18T21:13:32.857Z,101400.69
2024-04-18T21:16:01.136Z,101400.69
2024-04-18T21:18:29.152Z,101407.00
2024-04-18T21:20:57.249Z,101388.19
2024-04-18T21:23:24.538Z,101386.44
2024-04-18T21:25:51.962Z,101390.03
2024-04-18T21:28:19.268Z,101390.97
2024-04-18T21:30:46.586Z,101388.25
2024-04-18T21:33:14.072Z,101390.03
2024-04-18T21:35:41.421Z,101377.66
2024-04-18T21:38:10.054Z,101375.84
2024-04-18T21:40:39.166Z,101366.06
2024-04-18T21:43:06.449Z,101363.34
2024-04-18T21:45:33.987Z,101357.94
2024-04-18T21:48:01.420Z,101347.28
2024-04-18T21:50:28.764Z,101341.03
2024-04-18T21:52:56.064Z,101342.84
2024-04-18T21:55:23.440Z,101334.78
2024-04-18T21:57:50.778Z,101331.25
2024-04-18T22:00:18.996Z,101334.81
2024-04-18T22:02:46.417Z,101315.19
2024-04-18T22:05:13.674Z,101316.03
2024-04-18T22:07:41.002Z,101315.19
2024-04-18T22:10:08.735Z,101295.59
2024-04-18T22:12:36.015Z,101290.25
2024-04-18T22:15:03.861Z,101285.75
2024-04-18T22:17:31.123Z,101283.09
2024-04-18T22:19:58.583Z,101271.53
2024-04-18T22:22:25.866Z,101270.66
2024-04-18T22:24:53.168Z,101263.47
2024-04-18T22:27:20.469Z,101259.94
2024-04-18T22:29:47.782Z,101249.25
2024-04-18T22:32:15.085Z,101247.50
2024-04-18T22:34:43.909Z,101224.19
2024-04-18T22:37:11.236Z,101218.88
2024-04-18T22:39:38.834Z,101213.66
2024-04-18T22:42:06.529Z,101211.81
2024-04-18T22:44:33.785Z,101205.59
2024-04-18T22:47:01.183Z,101198.44
2024-04-18T22:49:28.521Z,101194.03
2024-04-18T22:51:55.824Z,101181.44
2024-04-18T22:54:23.128Z,101185.94
2024-04-18T22:56:50.398Z,101176.13
2024-04-18T22:59:17.647Z,101167.25
2024-04-18T23:01:45.015Z,101163.69
2024-04-18T23:04:12.612Z,101158.34
2024-04-18T23:06:40.075Z,101147.66
2024-04-18T23:09:07.569Z,101149.47
2024-04-18T23:11:34.823Z,101137.00
2024-04-18T23:14:02.141Z,101125.34
2024-04-18T23:16:29.458Z,101137.00
2024-04-18T23:18:56.727Z,101121.84
2024-04-18T23:21:24.019Z,101110.25
2024-04-18T23:23:51.388Z,101095.91
2024-04-18T23:26:18.763Z,101087.97
2024-04-18T23:28:46.099Z,101089.88
2024-04-18T23:31:13.393Z,101083.63
2024-04-18T23:33:40.698Z,101067.56
2024-04-18T23:36:08.084Z,101065.72
2024-04-18T23:38:35.361Z,101052.41
2024-04-18T23:41:03.426Z,101055.03
2024-04-18T23:43:30.686Z,101047.91
2024-04-18T23:45:58.067Z,101037.19
2024-04-18T23:48:25.462Z,101040.78
2024-04-18T23:50:52.791Z,101027.41
2024-04-18T23:53:20.047Z,101030.00
2024-04-18T23:55:47.351Z,101025.59
2024-04-18T23:58:14.616Z,101013.19
